sensor_id;sensor_type;location;lat;lon;timestamp;temperature;humidity
63317;DHT22;49822;41.468;13.560;2024-03-25T00:00:28;10.00;87.30
63317;DHT22;49822;41.468;13.560;2024-03-25T00:02:55;9.90;87.30
63317;DHT22;49822;41.468;13.560;2024-03-25T00:05:21;9.60;88.10
63317;DHT22;49822;41.468;13.560;2024-03-25T00:07:52;9.30;89.00
63317;DHT22;49822;41.468;13.560;2024-03-25T00:10:18;9.30;89.80
63317;DHT22;49822;41.468;13.560;2024-03-25T00:12:46;9.00;89.70
63317;DHT22;49822;41.468;13.560;2024-03-25T00:15:13;9.20;90.50
63317;DHT22;49822;41.468;13.560;2024-03-25T00:17:39;9.30;90.50
63317;DHT22;49822;41.468;13.560;2024-03-25T00:20:06;9.30;89.70
63317;DHT22;49822;41.468;13.560;2024-03-25T00:22:35;9.40;89.10
63317;DHT22;49822;41.468;13.560;2024-03-25T00:25:01;9.40;89.00
63317;DHT22;49822;41.468;13.560;2024-03-25T00:27:27;9.50;89.10
63317;DHT22;49822;41.468;13.560;2024-03-25T00:29:55;9.50;88.10
63317;DHT22;49822;41.468;13.560;2024-03-25T00:32:21;9.10;88.40
63317;DHT22;49822;41.468;13.560;2024-03-25T00:34:47;8.80;90.50
63317;DHT22;49822;41.468;13.560;2024-03-25T00:37:13;8.90;91.80
63317;DHT22;49822;41.468;13.560;2024-03-25T00:39:40;9.00;92.30
63317;DHT22;49822;41.468;13.560;2024-03-25T00:42:06;9.10;92.10
63317;DHT22;49822;41.468;13.560;2024-03-25T00:44:32;9.20;91.40
63317;DHT22;49822;41.468;13.560;2024-03-25T00:46:59;9.30;90.30
63317;DHT22;49822;41.468;13.560;2024-03-25T00:49:26;9.30;89.50
63317;DHT22;49822;41.468;13.560;2024-03-25T00:51:52;9.40;89.20
63317;DHT22;49822;41.468;13.560;2024-03-25T00:54:18;9.40;88.80
63317;DHT22;49822;41.468;13.560;2024-03-25T00:56:44;9.30;88.20
63317;DHT22;49822;41.468;13.560;2024-03-25T00:59:12;9.10;88.20
63317;DHT22;49822;41.468;13.560;2024-03-25T01:01:38;8.80;88.90
63317;DHT22;49822;41.468;13.560;2024-03-25T01:04:04;8.80;90.00
63317;DHT22;49822;41.468;13.560;2024-03-25T01:06:30;8.90;90.60
63317;DHT22;49822;41.468;13.560;2024-03-25T01:08:56;8.90;90.80
63317;DHT22;49822;41.468;13.560;2024-03-25T01:11:23;9.00;90.40
63317;DHT22;49822;41.468;13.560;2024-03-25T01:13:49;9.10;89.80
63317;DHT22;49822;41.468;13.560;2024-03-25T01:16:15;8.90;88.60
63317;DHT22;49822;41.468;13.560;2024-03-25T01:18:41;9.10;89.20
63317;DHT22;49822;41.468;13.560;2024-03-25T01:21:07;9.10;90.00
63317;DHT22;49822;41.468;13.560;2024-03-25T01:23:33;9.00;90.10
63317;DHT22;49822;41.468;13.560;2024-03-25T01:26:00;9.10;91.00
63317;DHT22;49822;41.468;13.560;2024-03-25T01:28:26;9.00;91.70
63317;DHT22;49822;41.468;13.560;2024-03-25T01:31:02;9.00;91.50
63317;DHT22;49822;41.468;13.560;2024-03-25T01:33:28;9.10;90.80
63317;DHT22;49822;41.468;13.560;2024-03-25T01:35:55;8.90;88.70
63317;DHT22;49822;41.468;13.560;2024-03-25T01:38:21;8.70;89.60
63317;DHT22;49822;41.468;13.560;2024-03-25T01:40:48;8.70;89.80
63317;DHT22;49822;41.468;13.560;2024-03-25T01:43:14;8.70;88.80
63317;DHT22;49822;41.468;13.560;2024-03-25T01:45:43;8.40;89.50
63317;DHT22;49822;41.468;13.560;2024-03-25T01:48:13;8.50;90.10
63317;DHT22;49822;41.468;13.560;2024-03-25T01:50:45;8.60;90.40
63317;DHT22;49822;41.468;13.560;2024-03-25T01:53:12;8.60;90.40
63317;DHT22;49822;41.468;13.560;2024-03-25T01:55:40;8.70;89.70
63317;DHT22;49822;41.468;13.560;2024-03-25T01:58:09;8.60;88.80
63317;DHT22;49822;41.468;13.560;2024-03-25T02:00:36;8.70;89.10
63317;DHT22;49822;41.468;13.560;2024-03-25T02:03:04;8.90;89.50
63317;DHT22;49822;41.468;13.560;2024-03-25T02:05:31;8.80;89.80
63317;DHT22;49822;41.468;13.560;2024-03-25T02:08:01;8.80;89.90
63317;DHT22;49822;41.468;13.560;2024-03-25T02:10:28;8.70;90.00
63317;DHT22;49822;41.468;13.560;2024-03-25T02:12:55;8.70;90.10
63317;DHT22;49822;41.468;13.560;2024-03-25T02:15:21;8.70;90.40
63317;DHT22;49822;41.468;13.560;2024-03-25T02:17:47;8.60;90.80
63317;DHT22;49822;41.468;13.560;2024-03-25T02:20:15;8.40;91.60
63317;DHT22;49822;41.468;13.560;2024-03-25T02:22:42;8.30;90.70
63317;DHT22;49822;41.468;13.560;2024-03-25T02:25:10;8.60;90.90
63317;DHT22;49822;41.468;13.560;2024-03-25T02:27:42;8.50;90.90
63317;DHT22;49822;41.468;13.560;2024-03-25T02:33:57;8.20;90.40
63317;DHT22;49822;41.468;13.560;2024-03-25T02:36:23;8.20;91.30
63317;DHT22;49822;41.468;13.560;2024-03-25T02:38:53;8.20;91.90
63317;DHT22;49822;41.468;13.560;2024-03-25T02:41:22;8.40;91.90
63317;DHT22;49822;41.468;13.560;2024-03-25T02:43:50;8.60;91.70
63317;DHT22;49822;41.468;13.560;2024-03-25T02:46:16;8.60;91.20
63317;DHT22;49822;41.468;13.560;2024-03-25T02:48:42;8.50;90.10
63317;DHT22;49822;41.468;13.560;2024-03-25T02:51:08;8.50;90.00
63317;DHT22;49822;41.468;13.560;2024-03-25T02:53:34;8.30;89.80
63317;DHT22;49822;41.468;13.560;2024-03-25T02:56:00;8.50;89.30
63317;DHT22;49822;41.468;13.560;2024-03-25T03:01:45;8.40;88.30
63317;DHT22;49822;41.468;13.560;2024-03-25T03:04:12;8.40;88.70
63317;DHT22;49822;41.468;13.560;2024-03-25T03:06:39;8.40;89.00
63317;DHT22;49822;41.468;13.560;2024-03-25T03:09:04;8.30;89.70
63317;DHT22;49822;41.468;13.560;2024-03-25T03:11:31;8.20;90.70
63317;DHT22;49822;41.468;13.560;2024-03-25T03:13:57;8.20;90.80
63317;DHT22;49822;41.468;13.560;2024-03-25T03:16:23;8.40;90.30
63317;DHT22;49822;41.468;13.560;2024-03-25T03:19:25;8.30;89.80
63317;DHT22;49822;41.468;13.560;2024-03-25T03:21:53;8.20;89.70
63317;DHT22;49822;41.468;13.560;2024-03-25T03:28:07;8.50;89.90
63317;DHT22;49822;41.468;13.560;2024-03-25T03:30:35;8.50;89.70
63317;DHT22;49822;41.468;13.560;2024-03-25T03:33:03;8.50;89.60
63317;DHT22;49822;41.468;13.560;2024-03-25T03:35:29;8.50;89.10
63317;DHT22;49822;41.468;13.560;2024-03-25T03:37:58;8.30;88.70
63317;DHT22;49822;41.468;13.560;2024-03-25T03:40:24;8.20;88.90
63317;DHT22;49822;41.468;13.560;2024-03-25T03:42:50;8.20;89.70
63317;DHT22;49822;41.468;13.560;2024-03-25T03:45:17;8.20;90.20
63317;DHT22;49822;41.468;13.560;2024-03-25T03:47:43;8.20;90.20
63317;DHT22;49822;41.468;13.560;2024-03-25T03:50:09;7.80;90.20
63317;DHT22;49822;41.468;13.560;2024-03-25T03:52:35;7.70;91.00
63317;DHT22;49822;41.468;13.560;2024-03-25T03:55:02;7.70;92.20
63317;DHT22;49822;41.468;13.560;2024-03-25T03:57:28;7.80;92.70
63317;DHT22;49822;41.468;13.560;2024-03-25T03:59:54;8.00;93.10
63317;DHT22;49822;41.468;13.560;2024-03-25T04:02:20;8.00;92.50
63317;DHT22;49822;41.468;13.560;2024-03-25T04:04:46;8.00;91.20
63317;DHT22;49822;41.468;13.560;2024-03-25T04:07:13;8.00;89.70
63317;DHT22;49822;41.468;13.560;2024-03-25T04:09:39;7.90;89.60
63317;DHT22;49822;41.468;13.560;2024-03-25T04:12:05;7.90;90.40
63317;DHT22;49822;41.468;13.560;2024-03-25T04:14:32;8.00;90.00
63317;DHT22;49822;41.468;13.560;2024-03-25T04:17:32;7.80;90.40
63317;DHT22;49822;41.468;13.560;2024-03-25T04:19:59;8.00;90.70
63317;DHT22;49822;41.468;13.560;2024-03-25T04:22:32;8.00;90.80
63317;DHT22;49822;41.468;13.560;2024-03-25T04:24:58;8.00;90.90
63317;DHT22;49822;41.468;13.560;2024-03-25T04:27:24;7.90;90.20
63317;DHT22;49822;41.468;13.560;2024-03-25T04:29:50;8.00;90.50
63317;DHT22;49822;41.468;13.560;2024-03-25T04:32:16;8.00;90.60
63317;DHT22;49822;41.468;13.560;2024-03-25T04:34:42;7.90;90.20
63317;DHT22;49822;41.468;13.560;2024-03-25T04:37:09;8.00;90.20
63317;DHT22;49822;41.468;13.560;2024-03-25T04:39:41;8.10;90.10
63317;DHT22;49822;41.468;13.560;2024-03-25T04:42:17;8.10;90.20
63317;DHT22;49822;41.468;13.560;2024-03-25T04:44:44;8.10;90.20
63317;DHT22;49822;41.468;13.560;2024-03-25T04:47:16;8.00;89.70
63317;DHT22;49822;41.468;13.560;2024-03-25T04:49:44;7.80;89.80
63317;DHT22;49822;41.468;13.560;2024-03-25T04:52:14;7.90;90.00
63317;DHT22;49822;41.468;13.560;2024-03-25T04:54:50;7.90;90.20
63317;DHT22;49822;41.468;13.560;2024-03-25T04:57:16;7.90;90.20
63317;DHT22;49822;41.468;13.560;2024-03-25T04:59:42;7.90;90.00
63317;DHT22;49822;41.468;13.560;2024-03-25T05:02:09;7.80;89.80
63317;DHT22;49822;41.468;13.560;2024-03-25T05:04:35;7.80;89.80
63317;DHT22;49822;41.468;13.560;2024-03-25T05:07:01;7.90;89.90
63317;DHT22;49822;41.468;13.560;2024-03-25T05:09:29;7.90;90.00
63317;DHT22;49822;41.468;13.560;2024-03-25T05:11:55;7.60;89.20
63317;DHT22;49822;41.468;13.560;2024-03-25T05:14:21;7.30;90.20
63317;DHT22;49822;41.468;13.560;2024-03-25T05:16:48;7.30;91.30
63317;DHT22;49822;41.468;13.560;2024-03-25T05:19:15;7.50;91.90
63317;DHT22;49822;41.468;13.560;2024-03-25T05:21:41;7.60;91.70
63317;DHT22;49822;41.468;13.560;2024-03-25T05:24:07;7.40;91.00
63317;DHT22;49822;41.468;13.560;2024-03-25T05:26:33;7.70;91.10
63317;DHT22;49822;41.468;13.560;2024-03-25T05:28:59;7.70;90.80
63317;DHT22;49822;41.468;13.560;2024-03-25T05:31:26;7.90;90.60
63317;DHT22;49822;41.468;13.560;2024-03-25T05:33:53;8.00;89.90
63317;DHT22;49822;41.468;13.560;2024-03-25T05:36:21;7.80;89.40
63317;DHT22;49822;41.468;13.560;2024-03-25T05:38:47;7.80;89.30
63317;DHT22;49822;41.468;13.560;2024-03-25T05:41:14;8.10;89.60
63317;DHT22;49822;41.468;13.560;2024-03-25T05:43:40;8.20;89.40
63317;DHT22;49822;41.468;13.560;2024-03-25T05:46:07;8.20;89.40
63317;DHT22;49822;41.468;13.560;2024-03-25T05:48:36;8.40;89.40
63317;DHT22;49822;41.468;13.560;2024-03-25T05:51:06;8.50;89.30
63317;DHT22;49822;41.468;13.560;2024-03-25T05:53:35;8.50;89.00
63317;DHT22;49822;41.468;13.560;2024-03-25T05:56:01;8.60;88.50
63317;DHT22;49822;41.468;13.560;2024-03-25T05:58:28;8.60;88.50
63317;DHT22;49822;41.468;13.560;2024-03-25T06:00:56;8.60;88.50
63317;DHT22;49822;41.468;13.560;2024-03-25T06:03:25;8.80;88.70
63317;DHT22;49822;41.468;13.560;2024-03-25T06:05:51;8.90;88.80
63317;DHT22;49822;41.468;13.560;2024-03-25T06:08:17;9.00;88.80
63317;DHT22;49822;41.468;13.560;2024-03-25T06:10:51;9.10;88.80
63317;DHT22;49822;41.468;13.560;2024-03-25T06:13:18;9.20;88.80
63317;DHT22;49822;41.468;13.560;2024-03-25T06:15:47;9.10;88.60
63317;DHT22;49822;41.468;13.560;2024-03-25T06:18:19;9.30;88.60
63317;DHT22;49822;41.468;13.560;2024-03-25T06:20:46;9.30;88.40
63317;DHT22;49822;41.468;13.560;2024-03-25T06:23:22;9.50;88.30
63317;DHT22;49822;41.468;13.560;2024-03-25T06:25:50;9.50;87.80
63317;DHT22;49822;41.468;13.560;2024-03-25T06:28:16;9.50;87.80
63317;DHT22;49822;41.468;13.560;2024-03-25T06:30:47;9.60;88.10
63317;DHT22;49822;41.468;13.560;2024-03-25T06:33:32;9.70;88.10
63317;DHT22;49822;41.468;13.560;2024-03-25T06:36:17;9.80;88.20
63317;DHT22;49822;41.468;13.560;2024-03-25T06:38:44;10.00;88.10
63317;DHT22;49822;41.468;13.560;2024-03-25T06:41:11;10.10;87.80
63317;DHT22;49822;41.468;13.560;2024-03-25T06:43:53;10.20;88.10
63317;DHT22;49822;41.468;13.560;2024-03-25T06:46:19;10.40;88.10
63317;DHT22;49822;41.468;13.560;2024-03-25T06:48:45;10.40;88.00
63317;DHT22;49822;41.468;13.560;2024-03-25T06:51:12;10.50;88.00
63317;DHT22;49822;41.468;13.560;2024-03-25T06:53:38;10.60;87.90
63317;DHT22;49822;41.468;13.560;2024-03-25T06:56:05;10.70;87.90
63317;DHT22;49822;41.468;13.560;2024-03-25T06:58:31;10.80;87.80
63317;DHT22;49822;41.468;13.560;2024-03-25T07:01:05;11.00;87.90
63317;DHT22;49822;41.468;13.560;2024-03-25T07:03:33;11.10;87.90
63317;DHT22;49822;41.468;13.560;2024-03-25T07:05:59;11.30;87.60
63317;DHT22;49822;41.468;13.560;2024-03-25T07:08:31;11.40;87.50
63317;DHT22;49822;41.468;13.560;2024-03-25T07:10:58;11.50;87.20
63317;DHT22;49822;41.468;13.560;2024-03-25T07:13:25;11.60;86.90
63317;DHT22;49822;41.468;13.560;2024-03-25T07:15:52;11.70;86.70
63317;DHT22;49822;41.468;13.560;2024-03-25T07:18:18;11.80;86.90
63317;DHT22;49822;41.468;13.560;2024-03-25T07:20:45;12.10;86.70
63317;DHT22;49822;41.468;13.560;2024-03-25T07:23:12;12.20;87.00
63317;DHT22;49822;41.468;13.560;2024-03-25T07:25:38;12.40;87.20
63317;DHT22;49822;41.468;13.560;2024-03-25T07:28:04;12.60;86.80
63317;DHT22;49822;41.468;13.560;2024-03-25T07:30:31;12.90;86.50
63317;DHT22;49822;41.468;13.560;2024-03-25T07:32:58;12.80;86.30
63317;DHT22;49822;41.468;13.560;2024-03-25T07:35:25;13.00;86.20
63317;DHT22;49822;41.468;13.560;2024-03-25T07:37:52;13.20;86.30
63317;DHT22;49822;41.468;13.560;2024-03-25T07:40:19;13.20;86.50
63317;DHT22;49822;41.468;13.560;2024-03-25T07:42:45;13.40;86.00
63317;DHT22;49822;41.468;13.560;2024-03-25T07:45:11;13.50;86.10
63317;DHT22;49822;41.468;13.560;2024-03-25T07:47:38;13.60;85.60
63317;DHT22;49822;41.468;13.560;2024-03-25T07:50:06;13.70;85.60
63317;DHT22;49822;41.468;13.560;2024-03-25T07:52:34;13.80;85.80
63317;DHT22;49822;41.468;13.560;2024-03-25T07:55:06;13.90;85.80
63317;DHT22;49822;41.468;13.560;2024-03-25T07:57:35;14.00;86.10
63317;DHT22;49822;41.468;13.560;2024-03-25T08:00:01;14.00;85.90
63317;DHT22;49822;41.468;13.560;2024-03-25T08:02:27;14.20;84.90
63317;DHT22;49822;41.468;13.560;2024-03-25T08:04:53;14.20;85.00
63317;DHT22;49822;41.468;13.560;2024-03-25T08:07:19;14.30;84.60
63317;DHT22;49822;41.468;13.560;2024-03-25T08:09:45;14.40;84.10
63317;DHT22;49822;41.468;13.560;2024-03-25T08:12:11;14.60;83.40
63317;DHT22;49822;41.468;13.560;2024-03-25T08:14:37;14.50;83.20
63317;DHT22;49822;41.468;13.560;2024-03-25T08:17:03;14.60;82.20
63317;DHT22;49822;41.468;13.560;2024-03-25T08:19:30;14.60;82.20
63317;DHT22;49822;41.468;13.560;2024-03-25T08:21:57;14.70;81.90
63317;DHT22;49822;41.468;13.560;2024-03-25T08:24:23;14.80;80.60
63317;DHT22;49822;41.468;13.560;2024-03-25T08:26:50;14.80;80.70
63317;DHT22;49822;41.468;13.560;2024-03-25T08:29:16;14.90;80.20
63317;DHT22;49822;41.468;13.560;2024-03-25T08:31:42;15.00;81.30
63317;DHT22;49822;41.468;13.560;2024-03-25T08:34:08;15.10;80.40
63317;DHT22;49822;41.468;13.560;2024-03-25T08:36:34;15.20;79.30
63317;DHT22;49822;41.468;13.560;2024-03-25T08:39:00;15.30;78.90
63317;DHT22;49822;41.468;13.560;2024-03-25T08:41:26;15.30;78.40
63317;DHT22;49822;41.468;13.560;2024-03-25T08:43:52;15.50;76.80
63317;DHT22;49822;41.468;13.560;2024-03-25T08:46:42;15.60;76.30
63317;DHT22;49822;41.468;13.560;2024-03-25T08:49:08;15.70;73.10
63317;DHT22;49822;41.468;13.560;2024-03-25T08:51:35;15.70;75.50
63317;DHT22;49822;41.468;13.560;2024-03-25T08:54:01;15.90;75.10
63317;DHT22;49822;41.468;13.560;2024-03-25T08:56:27;16.00;72.90
63317;DHT22;49822;41.468;13.560;2024-03-25T08:58:53;16.10;72.80
63317;DHT22;49822;41.468;13.560;2024-03-25T09:01:21;16.30;73.20
63317;DHT22;49822;41.468;13.560;2024-03-25T09:03:46;16.40;71.30
63317;DHT22;49822;41.468;13.560;2024-03-25T09:06:13;16.40;70.40
63317;DHT22;49822;41.468;13.560;2024-03-25T09:08:39;16.50;69.50
63317;DHT22;49822;41.468;13.560;2024-03-25T09:11:24;16.60;69.40
63317;DHT22;49822;41.468;13.560;2024-03-25T09:13:52;16.70;69.60
63317;DHT22;49822;41.468;13.560;2024-03-25T09:16:18;16.80;70.60
63317;DHT22;49822;41.468;13.560;2024-03-25T09:18:45;16.90;68.80
63317;DHT22;49822;41.468;13.560;2024-03-25T09:21:11;17.10;68.30
63317;DHT22;49822;41.468;13.560;2024-03-25T09:23:38;17.30;68.40
63317;DHT22;49822;41.468;13.560;2024-03-25T09:26:04;17.50;69.10
63317;DHT22;49822;41.468;13.560;2024-03-25T09:28:30;17.70;67.90
63317;DHT22;49822;41.468;13.560;2024-03-25T09:30:57;17.70;65.40
63317;DHT22;49822;41.468;13.560;2024-03-25T09:33:24;17.90;66.70
63317;DHT22;49822;41.468;13.560;2024-03-25T09:35:51;18.00;63.20
63317;DHT22;49822;41.468;13.560;2024-03-25T09:38:17;18.00;64.30
63317;DHT22;49822;41.468;13.560;2024-03-25T09:40:44;18.00;64.60
63317;DHT22;49822;41.468;13.560;2024-03-25T09:43:32;18.20;63.40
63317;DHT22;49822;41.468;13.560;2024-03-25T09:45:59;18.40;64.20
63317;DHT22;49822;41.468;13.560;2024-03-25T09:48:26;18.50;62.90
63317;DHT22;49822;41.468;13.560;2024-03-25T09:50:55;18.50;62.30
63317;DHT22;49822;41.468;13.560;2024-03-25T09:53:22;18.40;62.10
63317;DHT22;49822;41.468;13.560;2024-03-25T09:55:48;18.40;61.70
63317;DHT22;49822;41.468;13.560;2024-03-25T09:58:18;18.90;62.30
63317;DHT22;49822;41.468;13.560;2024-03-25T10:00:46;18.80;59.80
63317;DHT22;49822;41.468;13.560;2024-03-25T10:03:12;19.00;61.70
63317;DHT22;49822;41.468;13.560;2024-03-25T10:05:40;18.90;60.90
63317;DHT22;49822;41.468;13.560;2024-03-25T10:08:06;18.30;58.50
63317;DHT22;49822;41.468;13.560;2024-03-25T10:10:34;18.10;59.20
63317;DHT22;49822;41.468;13.560;2024-03-25T10:13:00;18.00;59.20
63317;DHT22;49822;41.468;13.560;2024-03-25T10:15:27;17.80;61.10
63317;DHT22;49822;41.468;13.560;2024-03-25T10:17:53;17.80;61.80
63317;DHT22;49822;41.468;13.560;2024-03-25T10:20:20;17.80;61.30
63317;DHT22;49822;41.468;13.560;2024-03-25T10:22:46;17.80;62.80
63317;DHT22;49822;41.468;13.560;2024-03-25T10:25:22;17.80;63.40
63317;DHT22;49822;41.468;13.560;2024-03-25T10:27:58;18.00;62.10
63317;DHT22;49822;41.468;13.560;2024-03-25T10:30:25;18.10;62.70
63317;DHT22;49822;41.468;13.560;2024-03-25T10:33:05;18.20;61.50
63317;DHT22;49822;41.468;13.560;2024-03-25T10:35:36;18.20;59.90
63317;DHT22;49822;41.468;13.560;2024-03-25T10:38:10;18.50;61.80
63317;DHT22;49822;41.468;13.560;2024-03-25T10:40:38;18.90;62.00
63317;DHT22;49822;41.468;13.560;2024-03-25T10:43:09;19.10;60.60
63317;DHT22;49822;41.468;13.560;2024-03-25T10:45:42;19.40;60.20
63317;DHT22;49822;41.468;13.560;2024-03-25T10:48:29;19.60;58.70
63317;DHT22;49822;41.468;13.560;2024-03-25T10:50:57;19.70;58.00
63317;DHT22;49822;41.468;13.560;2024-03-25T10:53:27;20.00;59.80
63317;DHT22;49822;41.468;13.560;2024-03-25T10:55:55;20.00;58.30
63317;DHT22;49822;41.468;13.560;2024-03-25T10:58:22;20.10;57.60
63317;DHT22;49822;41.468;13.560;2024-03-25T11:00:50;20.30;58.50
63317;DHT22;49822;41.468;13.560;2024-03-25T11:03:19;20.70;56.50
63317;DHT22;49822;41.468;13.560;2024-03-25T11:05:47;21.00;54.20
63317;DHT22;49822;41.468;13.560;2024-03-25T11:08:17;21.10;55.50
63317;DHT22;49822;41.468;13.560;2024-03-25T11:10:44;21.20;54.70
63317;DHT22;49822;41.468;13.560;2024-03-25T11:13:17;21.40;56.30
63317;DHT22;49822;41.468;13.560;2024-03-25T11:15:47;21.40;52.90
63317;DHT22;49822;41.468;13.560;2024-03-25T11:18:17;21.40;53.40
63317;DHT22;49822;41.468;13.560;2024-03-25T11:20:44;21.60;52.20
63317;DHT22;49822;41.468;13.560;2024-03-25T11:23:12;21.20;52.10
63317;DHT22;49822;41.468;13.560;2024-03-25T11:25:39;21.00;53.20
63317;DHT22;49822;41.468;13.560;2024-03-25T11:28:05;21.20;52.50
63317;DHT22;49822;41.468;13.560;2024-03-25T11:30:32;21.20;52.90
63317;DHT22;49822;41.468;13.560;2024-03-25T11:33:01;21.30;52.90
63317;DHT22;49822;41.468;13.560;2024-03-25T11:35:28;21.40;51.40
63317;DHT22;49822;41.468;13.560;2024-03-25T11:37:54;21.40;53.20
63317;DHT22;49822;41.468;13.560;2024-03-25T11:40:20;21.60;50.70
63317;DHT22;49822;41.468;13.560;2024-03-25T11:42:47;21.80;52.10
63317;DHT22;49822;41.468;13.560;2024-03-25T11:45:16;21.70;51.70
63317;DHT22;49822;41.468;13.560;2024-03-25T11:47:44;21.50;49.40
63317;DHT22;49822;41.468;13.560;2024-03-25T11:50:12;21.30;50.90
63317;DHT22;49822;41.468;13.560;2024-03-25T11:52:38;21.10;52.30
63317;DHT22;49822;41.468;13.560;2024-03-25T11:55:07;21.40;53.60
63317;DHT22;49822;41.468;13.560;2024-03-25T11:57:38;21.60;52.00
63317;DHT22;49822;41.468;13.560;2024-03-25T12:00:07;21.60;51.90
63317;DHT22;49822;41.468;13.560;2024-03-25T12:02:43;22.10;54.30
63317;DHT22;49822;41.468;13.560;2024-03-25T12:05:11;22.30;50.40
63317;DHT22;49822;41.468;13.560;2024-03-25T12:07:37;22.30;51.40
63317;DHT22;49822;41.468;13.560;2024-03-25T12:10:04;22.60;51.60
63317;DHT22;49822;41.468;13.560;2024-03-25T12:13:08;22.90;52.10
63317;DHT22;49822;41.468;13.560;2024-03-25T12:15:35;23.00;49.90
63317;DHT22;49822;41.468;13.560;2024-03-25T12:18:01;23.00;48.90
63317;DHT22;49822;41.468;13.560;2024-03-25T12:20:31;23.20;48.70
63317;DHT22;49822;41.468;13.560;2024-03-25T12:22:57;23.00;49.80
63317;DHT22;49822;41.468;13.560;2024-03-25T12:25:23;22.90;47.60
63317;DHT22;49822;41.468;13.560;2024-03-25T12:27:50;23.00;49.00
63317;DHT22;49822;41.468;13.560;2024-03-25T12:30:19;22.80;47.50
63317;DHT22;49822;41.468;13.560;2024-03-25T12:32:45;22.20;49.10
63317;DHT22;49822;41.468;13.560;2024-03-25T12:35:15;22.20;50.00
63317;DHT22;49822;41.468;13.560;2024-03-25T12:37:46;22.30;49.90
63317;DHT22;49822;41.468;13.560;2024-03-25T12:40:24;22.30;49.60
63317;DHT22;49822;41.468;13.560;2024-03-25T12:42:55;22.50;48.80
63317;DHT22;49822;41.468;13.560;2024-03-25T12:45:21;22.70;49.60
63317;DHT22;49822;41.468;13.560;2024-03-25T12:47:49;22.90;50.30
63317;DHT22;49822;41.468;13.560;2024-03-25T12:50:16;23.20;51.30
63317;DHT22;49822;41.468;13.560;2024-03-25T12:52:41;23.40;51.10
63317;DHT22;49822;41.468;13.560;2024-03-25T12:55:07;23.10;51.30
63317;DHT22;49822;41.468;13.560;2024-03-25T12:57:35;22.60;51.40
63317;DHT22;49822;41.468;13.560;2024-03-25T13:00:02;22.20;52.00
63317;DHT22;49822;41.468;13.560;2024-03-25T13:02:30;21.90;51.40
63317;DHT22;49822;41.468;13.560;2024-03-25T13:04:57;21.70;51.30
63317;DHT22;49822;41.468;13.560;2024-03-25T13:07:23;21.50;52.90
63317;DHT22;49822;41.468;13.560;2024-03-25T13:09:49;21.30;53.20
63317;DHT22;49822;41.468;13.560;2024-03-25T13:12:15;21.20;52.30
63317;DHT22;49822;41.468;13.560;2024-03-25T13:14:41;21.20;53.30
63317;DHT22;49822;41.468;13.560;2024-03-25T13:17:08;21.20;53.90
63317;DHT22;49822;41.468;13.560;2024-03-25T13:19:34;21.20;53.60
63317;DHT22;49822;41.468;13.560;2024-03-25T13:22:00;21.20;54.40
63317;DHT22;49822;41.468;13.560;2024-03-25T13:24:26;21.30;54.70
63317;DHT22;49822;41.468;13.560;2024-03-25T13:26:52;21.30;54.20
63317;DHT22;49822;41.468;13.560;2024-03-25T13:29:18;21.20;54.60
63317;DHT22;49822;41.468;13.560;2024-03-25T13:31:44;21.10;55.00
63317;DHT22;49822;41.468;13.560;2024-03-25T13:34:10;21.00;55.10
63317;DHT22;49822;41.468;13.560;2024-03-25T13:36:36;21.00;56.20
63317;DHT22;49822;41.468;13.560;2024-03-25T13:39:02;21.10;56.40
63317;DHT22;49822;41.468;13.560;2024-03-25T13:41:29;21.30;55.60
63317;DHT22;49822;41.468;13.560;2024-03-25T13:43:55;21.40;54.00
63317;DHT22;49822;41.468;13.560;2024-03-25T13:46:21;21.40;54.20
63317;DHT22;49822;41.468;13.560;2024-03-25T13:48:48;21.30;54.20
63317;DHT22;49822;41.468;13.560;2024-03-25T13:51:13;21.10;52.80
63317;DHT22;49822;41.468;13.560;2024-03-25T13:53:40;21.10;54.10
63317;DHT22;49822;41.468;13.560;2024-03-25T13:56:06;21.40;55.20
63317;DHT22;49822;41.468;13.560;2024-03-25T13:58:32;21.50;54.60
63317;DHT22;49822;41.468;13.560;2024-03-25T14:00:58;21.40;53.80
63317;DHT22;49822;41.468;13.560;2024-03-25T14:03:26;21.30;53.90
63317;DHT22;49822;41.468;13.560;2024-03-25T14:05:53;21.00;53.00
63317;DHT22;49822;41.468;13.560;2024-03-25T14:08:19;20.90;53.70
63317;DHT22;49822;41.468;13.560;2024-03-25T14:10:45;20.00;58.00
63317;DHT22;49822;41.468;13.560;2024-03-25T14:13:11;19.10;61.10
63317;DHT22;49822;41.468;13.560;2024-03-25T14:15:38;18.20;62.70
63317;DHT22;49822;41.468;13.560;2024-03-25T14:18:06;17.70;64.90
63317;DHT22;49822;41.468;13.560;2024-03-25T14:20:33;17.30;66.30
63317;DHT22;49822;41.468;13.560;2024-03-25T14:22:59;17.20;67.40
63317;DHT22;49822;41.468;13.560;2024-03-25T14:25:27;17.10;68.00
63317;DHT22;49822;41.468;13.560;2024-03-25T14:27:53;17.00;68.80
63317;DHT22;49822;41.468;13.560;2024-03-25T14:30:23;16.90;69.50
63317;DHT22;49822;41.468;13.560;2024-03-25T14:32:49;16.90;69.10
63317;DHT22;49822;41.468;13.560;2024-03-25T14:35:15;16.80;69.80
63317;DHT22;49822;41.468;13.560;2024-03-25T14:37:41;16.60;71.30
63317;DHT22;49822;41.468;13.560;2024-03-25T14:40:08;16.80;71.00
63317;DHT22;49822;41.468;13.560;2024-03-25T14:42:34;16.50;72.50
63317;DHT22;49822;41.468;13.560;2024-03-25T14:45:00;16.20;73.50
63317;DHT22;49822;41.468;13.560;2024-03-25T14:47:26;16.10;74.30
63317;DHT22;49822;41.468;13.560;2024-03-25T14:49:53;16.10;74.60
63317;DHT22;49822;41.468;13.560;2024-03-25T14:52:19;16.00;74.90
63317;DHT22;49822;41.468;13.560;2024-03-25T14:54:45;16.00;74.40
63317;DHT22;49822;41.468;13.560;2024-03-25T14:57:11;15.90;74.50
63317;DHT22;49822;41.468;13.560;2024-03-25T14:59:37;15.80;74.60
63317;DHT22;49822;41.468;13.560;2024-03-25T15:02:03;15.80;75.00
63317;DHT22;49822;41.468;13.560;2024-03-25T15:04:29;15.80;75.30
63317;DHT22;49822;41.468;13.560;2024-03-25T15:06:57;15.70;76.00
63317;DHT22;49822;41.468;13.560;2024-03-25T15:09:24;15.50;76.00
63317;DHT22;49822;41.468;13.560;2024-03-25T15:11:50;15.60;76.00
63317;DHT22;49822;41.468;13.560;2024-03-25T15:14:16;15.50;75.80
63317;DHT22;49822;41.468;13.560;2024-03-25T15:16:42;15.50;76.00
63317;DHT22;49822;41.468;13.560;2024-03-25T15:19:08;15.50;75.90
63317;DHT22;49822;41.468;13.560;2024-03-25T15:21:34;15.50;75.90
63317;DHT22;49822;41.468;13.560;2024-03-25T15:24:02;15.60;76.20
63317;DHT22;49822;41.468;13.560;2024-03-25T15:26:28;15.50;76.40
63317;DHT22;49822;41.468;13.560;2024-03-25T15:28:54;15.50;76.50
63317;DHT22;49822;41.468;13.560;2024-03-25T15:31:20;15.60;76.40
63317;DHT22;49822;41.468;13.560;2024-03-25T15:33:46;15.70;75.80
63317;DHT22;49822;41.468;13.560;2024-03-25T15:36:14;15.70;75.80